Latest Weather Observations for Kadina

IDS60801

Issued at 6:51 pm CDT Monday 25 October 2021 (issued every 10 minutes, with the page automatically refreshed every 10 minutes)

About weather observations | Map of weather stations | Latest weather observations for SA | Other Formats
Station Details ID: 022050 Name: KADINA AWS Lat: -33.97 Lon: 137.66 Height: 41.14 m
Data from the previous 72 hours. | See also: Recent months at Kadina
Date/Time
CDT
Temp
°C
App
Temp
°C
Dew
Point
°C
Rel
Hum
%
Delta-T
°C
Wind Press
QNH
hPa
Press
MSL
hPa
Rain since
9am
mm
Dir  Spd
km/h
Gust
km/h
Spd
kts
Gust
kts
25/06:30pm 22.9 19.4 3.4 28 9.4 S 11 19 6 10 1016.6 1016.6 0.0
25/06:00pm 23.0 19.6 1.9 25 9.9 SSW 9 17 5 9 1016.8 1016.8 0.0
25/05:30pm 23.0 19.2 1.9 25 9.9 SW 11 15 6 8 1016.9 1016.9 0.0
25/05:00pm 22.6 17.7 2.1 26 9.6 SW 17 20 9 11 1017.1 1017.1 0.0
25/04:30pm 22.0 16.9 3.2 29 9.0 WSW 19 26 10 14 1017.4 1017.4 0.0
25/04:00pm 22.5 17.5 4.5 31 8.9 SW 20 28 11 15 1017.5 1017.5 0.0
25/03:30pm 22.4 17.0 2.5 27 9.4 W 20 28 11 15 1017.8 1017.8 0.0
25/03:00pm 22.8 17.1 2.8 27 9.5 W 22 30 12 16 1018.3 1018.3 0.0
25/02:30pm 22.4 17.3 3.0 28 9.3 WNW 19 28 10 15 1018.8 1018.8 0.0
25/02:00pm 22.4 18.2 4.0 30 9.0 NW 15 20 8 11 1019.1 1019.1 0.0
25/01:30pm 22.5 18.9 5.0 32 8.7 WNW 13 20 7 11 1019.7 1019.7 0.0
25/01:00pm 21.0 16.6 4.6 34 8.0 NW 17 24 9 13 1020.2 1020.2 0.0
25/12:30pm 21.4 17.2 5.7 36 7.8 NW 17 24 9 13 1020.6 1020.6 0.0
25/12:00pm 20.0 16.0 4.9 37 7.3 NW 15 22 8 12 1021.1 1021.1 0.0
25/11:30am 20.1 16.5 2.9 32 8.0 NNW 11 15 6 8 1021.5 1021.5 0.0
25/11:00am 19.6 15.6 2.9 33 7.8 E 13 19 7 10 1022.0 1022.0 0.0
25/10:30am 19.2 15.3 3.4 35 7.4 E 13 22 7 12 1022.4 1022.4 0.0
25/10:00am 18.0 13.2 4.6 41 6.4 ENE 19 24 10 13 1022.5 1022.5 0.0
25/09:30am 16.8 12.1 5.1 46 5.6 E 19 24 10 13 1022.9 1022.9 0.0
25/09:00am 15.0 10.1 5.0 51 4.7 E 20 28 11 15 1023.0 1023.0 0.0
25/08:30am 13.5 8.7 4.9 56 4.0 E 19 24 10 13 1023.1 1023.1 0.0
25/08:00am 11.3 6.7 5.4 67 2.7 E 19 24 10 13 1022.8 1022.8 0.0
25/07:30am 9.6 4.9 5.0 73 2.1 ESE 19 24 10 13 1022.8 1022.8 0.0
25/07:00am 8.0 3.6 4.8 80 1.4 ESE 17 20 9 11 1022.7 1022.7 0.0
25/06:30am 7.1 2.6 4.4 83 1.2 ESE 17 20 9 11 1022.4 1022.4 0.0
25/06:00am 6.9 2.1 4.4 84 1.1 ESE 19 20 10 11 1022.2 1022.2 0.0
25/05:30am 7.4 2.6 4.5 82 1.3 ESE 19 22 10 12 1022.1 1022.1 0.0
25/05:00am 7.7 3.0 5.2 84 1.1 ESE 19 20 10 11 1021.8 1021.8 0.0
25/04:30am 8.1 3.3 5.4 83 1.2 ESE 20 24 11 13 1021.8 1021.8 0.0
25/04:00am 8.1 3.4 5.2 82 1.3 ESE 19 20 10 11 1021.8 1021.8 0.0
25/03:30am 8.2 3.2 4.4 77 1.7 E 20 24 11 13 1021.8 1021.8 0.0
25/03:00am 7.9 3.0 4.3 78 1.6 ESE 19 24 10 13 1021.9 1021.9 0.0
25/02:30am 8.7 3.8 4.9 77 1.7 ESE 20 24 11 13 1022.2 1022.2 0.0
25/02:00am 9.1 4.5 5.7 79 1.5 ESE 19 22 10 12 1022.4 1022.4 0.0
25/01:30am 10.3 5.2 6.1 75 1.9 ESE 22 28 12 15 1022.5 1022.5 0.0
25/01:00am 10.8 5.4 6.2 73 2.1 ESE 24 32 13 17 1022.7 1022.7 0.0
25/12:30am 11.1 5.6 6.0 71 2.4 ESE 24 32 13 17 1022.9 1022.9 0.0
25/12:00am 11.3 5.9 6.2 71 2.4 SE 24 32 13 17 1023.2 1023.2 0.0
 
Date/Time
CDT
Temp
°C
App
Temp
°C
Dew
Point
°C
Rel
Hum
%
Delta-T
°C
Wind Press
QNH
hPa
Press
MSL
hPa
Rain since
9am
mm
Dir  Spd
km/h
Gust
km/h
Spd
kts
Gust
kts
24/11:30pm 11.7 6.4 6.6 71 2.4 SE 24 33 13 18 1023.4 1023.4 0.0
24/11:00pm 12.0 6.3 6.7 70 2.5 SE 26 33 14 18 1023.4 1023.4 0.0
24/10:30pm 12.4 6.4 7.1 70 2.5 SE 28 39 15 21 1023.4 1023.4 0.0
24/10:00pm 12.6 6.6 7.1 69 2.7 SE 28 37 15 20 1023.3 1023.3 0.0
24/09:30pm 12.7 7.9 7.2 69 2.7 SE 22 32 12 17 1023.3 1023.3 0.0
24/09:00pm 12.9 8.0 7.1 68 2.8 SSE 22 30 12 16 1023.3 1023.3 0.0
24/08:30pm 13.3 8.4 6.9 65 3.1 SSE 22 32 12 17 1023.2 1023.2 0.0
24/08:00pm 14.0 9.6 6.6 61 3.6 SSE 19 22 10 12 1023.2 1023.2 0.0
24/07:30pm 15.2 10.2 6.5 56 4.2 SSE 22 33 12 18 1023.0 1023.0 0.0
24/07:00pm 16.6 10.5 6.4 51 5.0 SE 28 33 15 18 1022.6 1022.6 0.0
24/06:30pm 17.9 12.5 6.4 47 5.7 SE 24 32 13 17 1022.4 1022.4 0.0
24/06:00pm 19.0 13.9 5.8 42 6.5 SE 22 32 12 17 1022.3 1022.3 0.0
24/05:30pm 19.5 13.9 5.6 40 6.8 SE 24 33 13 18 1022.2 1022.2 0.0
24/05:00pm 20.6 15.5 4.2 34 7.9 ESE 20 32 11 17 1022.1 1022.1 0.0
24/04:30pm 20.9 16.2 3.2 31 8.4 SSE 17 30 9 16 1022.1 1022.1 0.0
24/04:00pm 21.4 17.0 2.6 29 8.9 SE 15 22 8 12 1022.3 1022.3 0.0
24/03:30pm 20.9 16.6 3.2 31 8.4 SE 15 24 8 13 1022.7 1022.7 0.0
24/03:00pm 21.1 16.4 2.9 30 8.6 ESE 17 26 9 14 1023.2 1023.2 0.0
24/02:30pm 20.2 14.9 3.0 32 8.1 SE 20 32 11 17 1023.8 1023.8 0.0
24/02:00pm 20.2 16.2 3.0 32 8.1 SE 13 28 7 15 1024.2 1024.2 0.0
24/01:30pm 20.0 14.8 2.4 31 8.1 SE 19 28 10 15 1024.6 1024.6 0.0
24/01:00pm 19.6 14.7 2.0 31 8.1 ESE 17 28 9 15 1025.1 1025.1 0.0
24/12:30pm 20.0 14.9 2.8 32 8.0 ESE 19 26 10 14 1025.5 1025.5 0.0
24/12:00pm 18.3 14.5 4.1 39 6.7 ESE 13 22 7 12 1025.8 1025.8 0.0
24/11:30am 16.9 11.7 3.6 41 6.1 SSE 20 30 11 16 1026.0 1026.0 0.0
24/11:00am 17.1 11.5 3.4 40 6.3 ESE 22 39 12 21 1026.2 1026.2 0.0
24/10:30am 16.6 12.0 5.6 48 5.3 E 19 32 10 17 1026.2 1026.2 0.0
24/10:00am 16.0 12.4 6.7 54 4.6 E 15 26 8 14 1026.3 1026.3 0.0
24/09:30am 14.2 11.7 8.4 68 2.9 SE 11 17 6 9 1026.5 1026.5 0.0
24/09:00am 13.2 10.8 8.5 73 2.3 SE 11 15 6 8 1026.5 1026.5 0.0
24/08:30am 10.8 8.2 7.9 82 1.4 ESE 11 15 6 8 1026.3 1026.3 0.0
24/08:00am 8.6 5.6 6.2 85 1.1 E 11 13 6 7 1026.1 1026.1 0.0
24/07:30am 8.1 5.2 6.6 90 0.7 SE 11 11 6 6 1025.9 1025.9 0.0
24/07:00am 8.0 5.4 6.0 87 0.9 ESE 9 11 5 6 1025.6 1025.6 0.0
24/06:30am 9.8 6.7 7.1 83 1.3 SSE 13 17 7 9 1025.1 1025.1 0.0
24/06:00am 10.2 7.2 7.8 85 1.1 SSE 13 17 7 9 1024.9 1024.9 0.0
24/05:30am 8.5 4.8 6.5 87 0.9 S 15 19 8 10 1024.7 1024.7 0.0
24/05:00am 8.7 4.7 6.5 86 1.0 SSE 17 20 9 11 1024.6 1024.6 0.0
24/04:30am 8.8 5.2 6.9 88 0.9 SSE 15 20 8 11 1024.5 1024.5 0.0
24/04:00am 8.4 5.2 6.7 89 0.8 SSE 13 15 7 8 1024.6 1024.6 0.0
24/03:30am 8.4 5.1 6.4 87 0.9 SSE 13 17 7 9 1024.7 1024.7 0.0
24/03:00am 9.1 5.2 7.1 87 0.9 SSE 17 20 9 11 1024.7 1024.7 0.0
24/02:30am 9.1 5.1 6.7 85 1.1 S 17 20 9 11 1024.9 1024.9 0.0
24/02:00am 9.2 5.2 6.8 85 1.1 S 17 20 9 11 1025.0 1025.0 0.0
24/01:30am 8.6 5.3 6.2 85 1.1 SSE 13 15 7 8 1025.3 1025.3 0.0
24/01:00am 9.0 5.3 6.4 84 1.2 SSE 15 19 8 10 1025.4 1025.4 0.0
24/12:30am 9.5 5.8 6.4 81 1.4 SSE 15 20 8 11 1025.4 1025.4 0.0
24/12:00am 9.9 5.8 6.3 78 1.7 SSE 17 20 9 11 1025.3 1025.3 0.0
 
Date/Time
CDT
Temp
°C
App
Temp
°C
Dew
Point
°C
Rel
Hum
%
Delta-T
°C
Wind Press
QNH
hPa
Press
MSL
hPa
Rain since
9am
mm
Dir  Spd
km/h
Gust
km/h
Spd
kts
Gust
kts
23/11:30pm 10.6 6.2 6.6 76 1.9 SSE 19 24 10 13 1025.4 1025.4 0.0
23/11:00pm 11.4 6.9 6.9 74 2.1 SSE 20 26 11 14 1025.5 1025.5 0.0
23/10:30pm 11.8 7.6 7.3 74 2.2 SSE 19 24 10 13 1025.4 1025.4 0.0
23/10:00pm 12.7 8.5 7.6 71 2.5 SSE 19 24 10 13 1025.3 1025.3 0.0
23/09:30pm 14.0 10.8 8.4 69 2.8 SSE 15 22 8 12 1025.3 1025.3 0.0
23/09:00pm 14.2 12.3 9.2 72 2.5 S 9 20 5 11 1025.0 1025.0 0.0
23/08:30pm 14.1 11.5 9.3 73 2.4 SSE 13 17 7 9 1024.6 1024.6 0.0
23/08:00pm 14.1 10.0 8.5 69 2.8 S 20 28 11 15 1024.2 1024.2 0.0
23/07:30pm 14.5 9.5 8.2 66 3.1 SSW 24 35 13 19 1023.8 1023.8 0.0
23/07:00pm 15.5 9.2 7.5 59 4.0 SSW 30 39 16 21 1023.2 1023.2 0.0
23/06:30pm 16.2 9.4 7.7 57 4.2 SSW 33 44 18 24 1022.8 1022.8 0.0
23/06:00pm 16.9 9.9 7.0 52 4.9 SW 33 43 18 23 1022.5 1022.5 0.0
23/05:30pm 17.4 10.5 7.2 51 5.1 SW 33 46 18 25 1022.5 1022.5 0.0
23/05:00pm 17.5 9.8 7.0 50 5.2 SW 37 50 20 27 1022.3 1022.3 0.0
23/04:30pm 17.8 10.5 7.0 49 5.4 SW 35 46 19 25 1022.2 1022.2 0.0
23/04:00pm 17.8 10.1 7.0 49 5.4 WSW 37 48 20 26 1022.2 1022.2 0.0
23/03:30pm 18.5 11.8 7.3 48 5.6 WSW 32 44 17 24 1022.3 1022.3 0.0
23/03:00pm 17.5 9.8 7.3 51 5.1 WSW 37 50 20 27 1022.4 1022.4 0.0
23/02:35pm 18.9 11.9 6.7 45 6.1 SW 33 52 18 28 1022.5 1022.5 0.0
23/02:30pm 19.0 11.7 7.4 47 5.9 SW 35 46 19 25 1022.6 1022.6 0.0
23/02:00pm 18.0 10.5 6.2 46 5.8 WSW 35 46 19 25 1022.5 1022.5 0.0
23/01:30pm 17.8 10.4 5.1 43 6.1 SW 33 48 18 26 1022.6 1022.6 0.0
23/01:00pm 18.5 11.3 5.0 41 6.5 SW 32 44 17 24 1022.9 1022.9 0.0
23/12:30pm 18.5 12.3 4.3 39 6.7 SSW 26 37 14 20 1023.0 1023.0 0.0
23/12:00pm 18.5 11.6 2.4 34 7.3 SSW 28 43 15 23 1023.0 1023.0 0.0
23/11:30am 18.7 12.1 4.1 38 6.9 SSW 28 43 15 23 1023.1 1023.1 0.0
23/11:00am 18.1 11.4 3.6 38 6.8 SSW 28 43 15 23 1023.0 1023.0 0.0
23/10:30am 17.1 9.8 2.3 37 6.7 SSW 30 41 16 22 1022.8 1022.8 0.0
23/10:00am 17.0 10.6 5.3 46 5.6 SSW 28 43 15 23 1022.6 1022.6 0.0
23/09:30am 16.6 10.4 7.8 56 4.4 S 30 39 16 21 1022.3 1022.3 0.0
23/09:00am 15.5 8.6 7.3 58 4.0 S 33 43 18 23 1022.0 1022.0 0.0
23/08:30am 14.8 9.5 10.0 73 2.5 S 28 37 15 20 1021.7 1021.7 0.0
23/08:00am 13.1 9.5 10.5 84 1.4 S 20 28 11 15 1021.4 1021.4 0.0
23/07:30am 11.6 8.1 10.2 91 0.7 S 19 24 10 13 1020.8 1020.8 0.0
23/07:00am 10.0 6.2 9.1 94 0.4 S 19 20 10 11 1020.3 1020.3 0.0
23/06:30am 7.2 3.8 6.1 93 0.5 S 13 15 7 8 1019.8 1019.8 0.0
23/06:00am 7.1 4.5 6.0 93 0.5 SSE 9 9 5 5 1019.7 1019.7 0.0
23/05:30am 7.3 4.7 6.2 93 0.5 SSE 9 11 5 6 1019.4 1019.4 0.0
23/05:00am 7.3 4.7 6.2 93 0.5 SSE 9 11 5 6 1019.1 1019.1 0.0
23/04:30am 7.8 5.7 6.6 92 0.6 SSE 7 9 4 5 1019.1 1019.1 0.0
23/04:00am 9.1 6.5 7.9 92 0.6 SSE 11 13 6 7 1019.0 1019.0 0.0
23/03:30am 9.3 6.4 8.1 92 0.6 S 13 15 7 8 1019.0 1019.0 0.0
23/03:00am 9.7 7.3 8.5 92 0.6 SSW 11 13 6 7 1019.2 1019.2 0.0
23/02:30am 9.8 8.3 8.4 91 0.7 S 6 11 3 6 1019.2 1019.2 0.0
23/02:00am 10.3 8.3 8.7 90 0.8 SSW 9 13 5 7 1019.2 1019.2 0.0
23/01:30am 10.9 8.3 9.2 89 0.8 SSW 13 17 7 9 1019.2 1019.2 0.0
23/01:00am 11.6 8.7 9.7 88 1.0 SSW 15 17 8 9 1019.3 1019.3 0.0
23/12:30am 12.1 8.9 10.0 87 1.1 SSW 17 20 9 11 1019.2 1019.2 0.0
23/12:00am 12.7 9.6 10.4 86 1.2 SSW 17 20 9 11 1019.3 1019.3 0.0
 
Date/Time
CDT
Temp
°C
App
Temp
°C
Dew
Point
°C
Rel
Hum
%
Delta-T
°C
Wind Press
QNH
hPa
Press
MSL
hPa
Rain since
9am
mm
Dir  Spd
km/h
Gust
km/h
Spd
kts
Gust
kts
22/11:30pm 13.3 10.0 10.8 85 1.3 SSW 19 24 10 13 1019.1 1019.1 0.0
22/11:00pm 13.7 10.1 10.7 82 1.6 SSW 20 28 11 15 1019.2 1019.2 0.0
22/10:30pm 13.9 10.4 10.9 82 1.6 SSW 20 30 11 16 1018.9 1018.9 0.0
22/10:00pm 14.2 10.1 11.4 83 1.5 SW 24 30 13 16 1018.7 1018.7 0.0
22/09:30pm 14.3 11.2 11.6 84 1.4 SSW 19 26 10 14 1018.4 1018.4 0.0
22/09:00pm 14.8 11.3 12.1 84 1.5 SW 22 30 12 16 1017.9 1017.9 0.0
22/08:30pm 15.4 12.4 12.0 80 1.8 SW 19 24 10 13 1017.3 1017.3 0.0
22/08:00pm 16.5 13.8 11.6 73 2.7 SW 17 26 9 14 1016.7 1016.7 0.0
22/07:30pm 17.5 14.7 11.3 67 3.4 SSW 17 24 9 13 1016.3 1016.3 0.0
22/07:00pm 17.6 13.5 11.6 68 3.3 SSW 24 32 13 17 1015.9 1015.9 0.0

Other formats

Comma delimited format used in spreadsheet applications
http://www.bom.gov.au/fwo/IDS60801/IDS60801.94685.axf

JavaScript Object Notation format (JSON) in row-major order
http://www.bom.gov.au/fwo/IDS60801/IDS60801.94685.json

Data quality

Most of these data are generated automatically and are frequently updated. Quality checks on data are not normally performed. It is possible for incorrect values to appear. Refer to information at About Latest Weather Observations and please check the disclaimer before using these data.